Time;durP1;ratioP1;P1;durP2;ratioP2;P2;SDS_P1;SDS_P2;PMS_P1;PMS_P2;Temp;Humidity;BMP_temperature;BMP_pressure;BME280_temperature;BME280_humidity;BME280_pressure;Samples;Min_cycle;Max_cycle;Signal;HPM_P1;HPM_P2
2022/07/28 00:01:32;;;;;;;5.85;4.80;;;17.50;99.90;;;;;;6154648;23;20173;-74
2022/07/28 00:03:58;;;;;;;7.05;4.40;;;17.50;99.90;;;;;;6154259;23;20173;-73
2022/07/28 00:06:24;;;;;;;8.80;4.75;;;17.60;99.90;;;;;;6154608;23;20153;-74
2022/07/28 00:08:50;;;;;;;4.30;3.88;;;17.60;99.90;;;;;;6153967;23;20161;-73
2022/07/28 00:11:15;;;;;;;7.20;4.90;;;17.60;99.90;;;;;;6154458;23;20158;-74
2022/07/28 00:13:41;;;;;;;5.57;4.90;;;17.70;99.90;;;;;;6154471;23;20276;-74
2022/07/28 00:16:07;;;;;;;5.05;4.50;;;17.70;99.90;;;;;;6154387;23;20153;-74
2022/07/28 00:18:32;;;;;;;4.72;4.28;;;17.80;99.90;;;;;;6153887;23;20165;-74
2022/07/28 00:20:58;;;;;;;9.25;5.30;;;17.70;99.90;;;;;;6154537;23;20173;-73
2022/07/28 00:23:24;;;;;;;5.13;4.72;;;17.70;99.90;;;;;;6154155;23;20173;-74
2022/07/28 00:25:49;;;;;;;7.38;4.53;;;17.70;99.90;;;;;;6153923;23;20239;-74
2022/07/28 00:28:15;;;;;;;6.75;5.32;;;17.60;99.90;;;;;;6154155;23;20134;-74
2022/07/28 00:30:41;;;;;;;6.53;5.22;;;17.60;99.90;;;;;;6152820;23;20161;-74
2022/07/28 00:33:06;;;;;;;6.45;5.13;;;17.50;99.90;;;;;;6154001;23;20200;-74
2022/07/28 00:35:32;;;;;;;8.93;4.80;;;17.50;99.90;;;;;;6153988;23;20180;-74
2022/07/28 00:37:58;;;;;;;5.35;4.68;;;17.40;99.90;;;;;;6153839;23;20156;-74
2022/07/28 00:41:09;;;;;;;5.30;4.90;;;17.30;99.90;;;;;;6153634;23;20190;-74
2022/07/28 00:43:09;;;;;;;6.70;4.80;;;17.30;99.90;;;;;;6153665;23;20180;-73
2022/07/28 00:45:35;;;;;;;6.78;5.05;;;17.20;99.90;;;;;;6154580;23;20150;-73
2022/07/28 00:48:00;;;;;;;6.75;5.25;;;17.10;99.90;;;;;;6154567;23;20150;-72
2022/07/28 00:50:26;;;;;;;6.65;5.63;;;17.10;99.90;;;;;;6154499;23;20177;-73
2022/07/28 00:52:52;;;;;;;7.15;5.50;;;17.00;99.90;;;;;;6154104;23;20173;-74
2022/07/28 00:55:19;;;;;;;7.40;5.47;;;17.00;99.90;;;;;;6154687;23;20158;-72
2022/07/28 00:57:45;;;;;;;6.70;5.13;;;16.90;99.90;;;;;;6154409;23;20553;-72
2022/07/28 01:00:11;;;;;;;6.70;5.20;;;16.90;99.90;;;;;;6153813;23;20173;-72
2022/07/28 01:02:36;;;;;;;5.88;5.03;;;16.90;99.90;;;;;;6154020;23;20169;-73
2022/07/28 01:05:02;;;;;;;5.80;5.28;;;16.80;99.90;;;;;;6154557;23;20152;-73
2022/07/28 01:07:41;;;;;;;7.18;5.22;;;16.80;99.90;;;;;;6154590;23;20142;-72
2022/07/28 01:10:11;;;;;;;6.38;5.30;;;16.70;99.90;;;;;;6153236;23;20149;-73
2022/07/28 01:13:12;;;;;;;7.45;5.82;;;16.70;99.90;;;;;;6152634;23;20232;-73
2022/07/28 01:15:49;;;;;;;7.32;5.47;;;16.70;99.90;;;;;;6137677;23;20161;-73
2022/07/28 01:18:19;;;;;;;5.88;5.25;;;16.60;99.90;;;;;;6154017;23;20598;-73
2022/07/28 01:20:48;;;;;;;6.60;6.07;;;16.60;99.90;;;;;;6154021;23;20622;-73
2022/07/28 01:23:33;;;;;;;9.55;6.13;;;16.60;99.90;;;;;;6153917;23;20169;-73
2022/07/28 01:26:10;;;;;;;8.02;5.80;;;16.60;99.90;;;;;;6154352;23;20156;-73
2022/07/28 01:28:58;;;;;;;10.32;5.80;;;16.60;99.90;;;;;;6153349;23;20137;-74
2022/07/28 01:31:26;;;;;;;6.30;5.70;;;16.50;99.90;;;;;;6153191;23;20137;-72
2022/07/28 01:33:58;;;;;;;7.38;6.18;;;16.50;99.90;;;;;;6153311;23;20169;-74
2022/07/28 01:36:41;;;;;;;7.10;6.20;;;16.60;99.90;;;;;;6154037;23;20145;-73
2022/07/28 01:39:08;;;;;;;7.05;6.15;;;16.60;99.90;;;;;;6153182;23;20142;-72
2022/07/28 01:41:36;;;;;;;7.53;5.60;;;16.60;99.90;;;;;;6154074;23;20200;-72
2022/07/28 01:44:07;;;;;;;8.70;6.63;;;16.60;99.90;;;;;;6153911;23;20170;-72
2022/07/28 01:46:34;;;;;;;6.35;5.75;;;16.60;99.90;;;;;;6127504;23;20516;-70
2022/07/28 01:49:01;;;;;;;8.13;5.68;;;16.70;99.90;;;;;;6153990;23;20208;-69
2022/07/28 01:51:29;;;;;;;8.85;6.10;;;16.70;99.90;;;;;;6154603;23;20492;-70
2022/07/28 01:53:57;;;;;;;11.05;7.03;;;16.70;99.90;;;;;;6153822;23;20177;-70
2022/07/28 01:56:25;;;;;;;8.10;6.45;;;16.70;99.90;;;;;;6154283;23;20656;-70
2022/07/28 01:58:52;;;;;;;8.88;6.70;;;16.60;99.90;;;;;;6153861;23;20672;-70
2022/07/28 02:01:19;;;;;;;7.65;6.68;;;16.60;99.90;;;;;;6154345;23;20169;-69
2022/07/28 02:03:46;;;;;;;8.32;7.00;;;16.50;99.90;;;;;;6153914;23;20627;-70
2022/07/28 02:09:35;;;;;;;11.85;7.65;;;16.50;99.90;;;;;;6151195;23;20581;-70
2022/07/28 02:12:03;;;;;;;10.80;7.07;;;16.40;99.90;;;;;;6153796;23;20165;-71
2022/07/28 02:14:29;;;;;;;8.68;7.18;;;16.30;99.90;;;;;;6154625;23;20210;-70
2022/07/28 02:17:03;;;;;;;8.32;7.40;;;16.30;99.90;;;;;;6156165;23;20153;-69
2022/07/28 02:19:30;;;;;;;13.07;7.53;;;16.30;99.90;;;;;;6155219;23;20137;-70
2022/07/28 02:21:56;;;;;;;9.27;6.90;;;16.20;99.90;;;;;;6156221;23;20184;-70
2022/07/28 02:24:27;;;;;;;9.30;7.22;;;16.20;99.90;;;;;;6155863;23;20474;-69
2022/07/28 02:27:02;;;;;;;8.77;7.03;;;16.20;99.90;;;;;;6155712;23;20149;-70
2022/07/28 02:29:32;;;;;;;10.07;7.13;;;16.10;99.90;;;;;;6155195;23;20141;-69
2022/07/28 02:32:06;;;;;;;7.07;6.38;;;16.10;99.90;;;;;;6155779;23;20525;-69
2022/07/28 02:34:36;;;;;;;12.18;7.38;;;16.00;99.90;;;;;;6155689;23;20622;-70
2022/07/28 02:37:03;;;;;;;7.85;6.38;;;16.00;99.90;;;;;;6155560;23;20184;-70
2022/07/28 02:39:40;;;;;;;7.60;6.78;;;16.00;99.90;;;;;;6155611;23;20146;-69
2022/07/28 02:42:13;;;;;;;9.02;7.35;;;15.90;99.90;;;;;;6155625;23;20557;-70
2022/07/28 02:44:42;;;;;;;8.07;7.28;;;15.90;99.90;;;;;;6155512;23;20133;-70
2022/07/28 02:47:15;;;;;;;9.70;7.60;;;15.90;99.90;;;;;;6129122;23;20154;-70
2022/07/28 02:49:42;;;;;;;9.07;7.00;;;15.80;99.90;;;;;;6155020;23;20153;-70
2022/07/28 02:52:10;;;;;;;9.15;7.30;;;15.90;99.90;;;;;;6155838;23;20235;-69
2022/07/28 02:54:36;;;;;;;9.65;7.28;;;15.80;99.90;;;;;;6155381;23;20200;-71
2022/07/28 02:57:03;;;;;;;8.10;7.32;;;15.80;99.90;;;;;;6155696;23;20145;-70
2022/07/28 02:59:30;;;;;;;9.10;7.20;;;15.70;99.90;;;;;;6155240;23;20156;-69
2022/07/28 03:01:57;;;;;;;10.20;7.15;;;15.70;99.90;;;;;;6155737;23;20153;-70
2022/07/28 03:07:08;;;;;;;8.25;7.20;;;15.60;99.90;;;;;;6155858;23;20145;-70
2022/07/28 03:09:39;;;;;;;11.85;7.53;;;15.60;99.90;;;;;;6152519;23;20149;-71
2022/07/28 03:12:05;;;;;;;9.48;7.10;;;15.60;99.90;;;;;;6154961;23;20169;-70
2022/07/28 03:14:31;;;;;;;8.13;7.30;;;15.50;99.90;;;;;;6129323;23;20185;-70
2022/07/28 03:16:56;;;;;;;12.23;6.93;;;15.60;99.90;;;;;;6155838;23;20153;-71
2022/07/28 03:19:22;;;;;;;9.88;6.65;;;15.50;99.90;;;;;;6155060;23;20583;-69
2022/07/28 03:21:48;;;;;;;10.55;7.32;;;15.50;99.90;;;;;;6155535;23;20176;-70
2022/07/28 03:24:16;;;;;;;8.25;6.93;;;15.50;99.90;;;;;;6155848;23;20149;-70
2022/07/28 03:26:52;;;;;;;11.20;6.82;;;15.50;99.90;;;;;;6155659;23;20232;-70
2022/07/28 03:29:18;;;;;;;8.82;7.18;;;15.50;99.90;;;;;;6154993;23;20137;-69
2022/07/28 03:31:46;;;;;;;8.98;7.03;;;15.50;99.90;;;;;;6155603;23;20169;-69
2022/07/28 03:34:13;;;;;;;10.88;6.90;;;15.50;99.90;;;;;;6155171;23;20188;-69
2022/07/28 03:36:44;;;;;;;6.93;6.32;;;15.50;99.90;;;;;;6154909;23;20240;-70
2022/07/28 03:39:10;;;;;;;6.90;6.20;;;15.40;99.90;;;;;;6155182;23;20142;-69
2022/07/28 03:41:39;;;;;;;8.98;6.78;;;15.40;99.90;;;;;;6155536;23;20630;-69
2022/07/28 03:44:06;;;;;;;9.52;7.43;;;15.40;99.90;;;;;;6154929;23;20173;-69
2022/07/28 03:46:32;;;;;;;10.13;6.90;;;15.40;99.90;;;;;;6155466;23;20602;-70
2022/07/28 03:48:58;;;;;;;8.88;7.10;;;15.40;99.90;;;;;;6155136;23;20196;-70
2022/07/28 03:51:27;;;;;;;9.35;6.63;;;15.40;99.90;;;;;;6155495;23;20176;-70
2022/07/28 03:53:52;;;;;;;7.90;6.82;;;15.40;99.90;;;;;;6155010;23;20174;-70
2022/07/28 03:56:18;;;;;;;8.00;6.57;;;15.40;99.90;;;;;;6155517;23;20153;-69
2022/07/28 03:58:44;;;;;;;9.75;6.78;;;15.40;99.90;;;;;;6154902;23;20260;-72
2022/07/28 04:01:09;;;;;;;9.05;7.20;;;15.40;99.90;;;;;;6155051;23;20169;-69
2022/07/28 04:03:35;;;;;;;7.32;6.63;;;15.40;99.90;;;;;;6153137;23;20173;-69
2022/07/28 04:06:00;;;;;;;9.98;6.95;;;15.50;99.90;;;;;;6155455;23;20171;-69
2022/07/28 04:08:26;;;;;;;8.98;7.00;;;15.50;99.90;;;;;;6153687;23;20172;-70
2022/07/28 04:10:52;;;;;;;8.80;6.38;;;15.50;99.90;;;;;;6154819;23;20641;-71
2022/07/28 04:13:19;;;;;;;11.93;6.97;;;15.50;99.90;;;;;;6154975;23;20263;-70
2022/07/28 04:15:44;;;;;;;7.35;6.63;;;15.50;99.90;;;;;;6154024;23;20513;-70
2022/07/28 04:18:10;;;;;;;10.38;6.63;;;15.50;99.90;;;;;;6153802;23;20169;-72
2022/07/28 04:20:36;;;;;;;8.20;5.97;;;15.70;99.90;;;;;;6153819;23;20165;-69
2022/07/28 04:23:02;;;;;;;9.65;6.65;;;15.70;99.90;;;;;;6153815;23;20193;-69
2022/07/28 04:25:27;;;;;;;8.95;6.05;;;15.70;99.90;;;;;;6154055;23;20138;-69
2022/07/28 04:27:53;;;;;;;10.60;6.80;;;15.70;99.90;;;;;;6154151;23;20156;-69
2022/07/28 04:30:23;;;;;;;8.93;6.55;;;15.70;99.90;;;;;;6152695;23;20161;-69
2022/07/28 04:32:53;;;;;;;6.90;6.20;;;15.70;99.90;;;;;;6154450;23;20692;-69
2022/07/28 04:35:19;;;;;;;8.13;6.20;;;15.70;99.90;;;;;;6153614;23;20152;-69
2022/07/28 04:37:47;;;;;;;7.43;6.53;;;15.80;99.90;;;;;;6152874;23;20227;-71
2022/07/28 04:40:13;;;;;;;10.60;6.60;;;15.80;99.90;;;;;;6153896;23;20684;-69
2022/07/28 04:42:39;;;;;;;8.60;6.55;;;15.90;99.90;;;;;;6152084;23;20165;-69
2022/07/28 04:45:07;;;;;;;7.07;6.38;;;15.90;99.90;;;;;;6154008;23;20137;-71
2022/07/28 04:47:33;;;;;;;7.68;6.88;;;16.00;99.90;;;;;;6153740;23;20666;-72
2022/07/28 04:49:59;;;;;;;9.68;6.45;;;16.10;99.90;;;;;;6153209;23;20176;-70
2022/07/28 04:52:25;;;;;;;9.38;6.88;;;16.20;99.90;;;;;;6151694;23;20231;-70
2022/07/28 04:54:51;;;;;;;8.93;6.18;;;16.30;99.90;;;;;;6153523;23;20276;-71
2022/07/28 04:57:17;;;;;;;9.30;7.18;;;16.40;99.90;;;;;;6153117;23;20176;-71
2022/07/28 04:59:43;;;;;;;9.75;7.03;;;16.40;99.90;;;;;;6153066;23;20141;-70
2022/07/28 05:02:08;;;;;;;10.77;6.25;;;16.50;99.90;;;;;;6152256;23;20200;-69
2022/07/28 05:04:34;;;;;;;8.25;6.53;;;16.60;99.90;;;;;;6152225;23;20138;-70
2022/07/28 05:07:00;;;;;;;9.65;6.82;;;16.70;99.90;;;;;;6153929;23;20523;-70
2022/07/28 05:09:26;;;;;;;9.57;6.72;;;16.70;99.90;;;;;;6152894;23;20146;-71
2022/07/28 05:11:51;;;;;;;7.75;5.68;;;16.80;99.90;;;;;;6153526;23;20149;-70
2022/07/28 05:14:17;;;;;;;8.82;6.45;;;16.80;99.90;;;;;;6153904;23;20142;-69
2022/07/28 05:16:43;;;;;;;7.82;5.63;;;16.90;99.90;;;;;;6154028;23;20180;-69
2022/07/28 05:19:09;;;;;;;8.45;6.07;;;17.00;99.90;;;;;;6154198;23;20150;-70
2022/07/28 05:21:35;;;;;;;7.38;5.63;;;17.10;99.90;;;;;;6154095;23;20173;-69
2022/07/28 05:24:00;;;;;;;10.23;6.63;;;17.10;99.90;;;;;;6154555;23;20281;-69
2022/07/28 05:26:27;;;;;;;6.97;6.28;;;17.20;99.90;;;;;;6154505;23;20149;-70
2022/07/28 05:28:53;;;;;;;8.48;6.30;;;17.30;99.90;;;;;;6153567;23;20471;-70
2022/07/28 05:31:19;;;;;;;7.00;5.45;;;17.40;99.90;;;;;;6154412;23;20150;-70
2022/07/28 05:33:45;;;;;;;10.63;6.28;;;17.40;99.90;;;;;;6154198;23;20645;-69
2022/07/28 05:36:10;;;;;;;9.85;6.50;;;17.50;99.90;;;;;;6153946;23;20203;-72
2022/07/28 05:38:36;;;;;;;9.70;5.47;;;17.60;99.90;;;;;;6154285;23;20157;-71
2022/07/28 05:41:02;;;;;;;9.20;6.40;;;17.80;99.90;;;;;;6128235;23;20180;-74
2022/07/28 05:43:28;;;;;;;7.63;6.63;;;17.80;99.90;;;;;;6154671;23;20165;-74
2022/07/28 05:45:53;;;;;;;7.18;6.28;;;17.90;99.90;;;;;;6153786;23;20666;-73
2022/07/28 05:48:20;;;;;;;9.30;5.57;;;17.90;99.90;;;;;;6154353;23;20228;-75
2022/07/28 05:50:47;;;;;;;9.07;6.70;;;18.00;99.90;;;;;;6155535;23;20602;-73
2022/07/28 05:53:12;;;;;;;9.20;6.43;;;18.10;99.90;;;;;;6156593;23;20192;-72
2022/07/28 05:55:38;;;;;;;9.13;5.82;;;18.20;99.90;;;;;;6156010;23;20537;-72
2022/07/28 05:58:04;;;;;;;7.07;6.05;;;18.20;99.90;;;;;;6156028;23;20200;-73
2022/07/28 06:00:33;;;;;;;7.28;5.40;;;18.20;99.90;;;;;;6155602;23;20173;-74
2022/07/28 06:03:02;;;;;;;10.10;6.35;;;18.20;99.90;;;;;;6155659;23;20353;-72
2022/07/28 06:05:29;;;;;;;7.05;5.68;;;18.20;99.90;;;;;;6156178;23;20622;-73
2022/07/28 06:07:55;;;;;;;8.10;5.80;;;18.30;99.90;;;;;;6129752;23;20153;-72
2022/07/28 06:10:23;;;;;;;7.90;5.93;;;18.40;99.90;;;;;;6129755;23;20248;-72
2022/07/28 06:12:57;;;;;;;8.00;6.43;;;18.50;99.90;;;;;;6155593;23;20173;-71
2022/07/28 06:15:26;;;;;;;9.18;5.97;;;18.60;99.90;;;;;;6155323;23;20649;-72
2022/07/28 06:17:54;;;;;;;8.48;6.20;;;18.70;99.90;;;;;;6154380;23;20157;-73
2022/07/28 06:20:26;;;;;;;7.50;5.10;;;18.90;99.90;;;;;;6154146;23;20227;-75
2022/07/28 06:22:54;;;;;;;6.60;5.90;;;19.00;99.90;;;;;;6155238;23;20189;-72
2022/07/28 06:25:23;;;;;;;6.38;5.30;;;19.10;99.90;;;;;;6155074;23;20587;-72
2022/07/28 06:27:51;;;;;;;7.70;5.63;;;19.20;99.90;;;;;;6155944;23;20149;-72
2022/07/28 06:30:17;;;;;;;6.07;5.47;;;19.20;99.90;;;;;;6128691;23;20161;-72
2022/07/28 06:32:44;;;;;;;6.18;5.57;;;19.30;99.90;;;;;;6155502;23;20173;-72
2022/07/28 06:35:13;;;;;;;7.97;5.57;;;19.40;99.90;;;;;;6155213;23;20149;-72
2022/07/28 06:37:39;;;;;;;10.88;6.55;;;19.40;99.90;;;;;;6155500;23;20241;-73
2022/07/28 06:40:06;;;;;;;12.77;5.88;;;19.60;99.90;;;;;;6154855;23;20635;-73
2022/07/28 06:42:31;;;;;;;9.85;5.85;;;19.60;99.90;;;;;;6155560;23;20165;-72
2022/07/28 06:44:57;;;;;;;10.35;5.63;;;19.70;99.90;;;;;;6155754;23;20146;-73
2022/07/28 06:47:23;;;;;;;10.60;6.53;;;19.80;99.90;;;;;;6127936;23;20571;-72
2022/07/28 06:49:48;;;;;;;11.95;6.53;;;19.90;99.90;;;;;;6154993;23;20156;-71
2022/07/28 06:52:16;;;;;;;9.93;6.75;;;20.10;99.90;;;;;;6155314;23;20180;-72
2022/07/28 06:54:42;;;;;;;9.02;5.43;;;20.30;99.90;;;;;;6155095;23;20150;-75
2022/07/28 06:57:08;;;;;;;8.07;5.63;;;20.40;99.90;;;;;;6155052;23;20192;-75
2022/07/28 06:59:34;;;;;;;9.40;6.22;;;20.50;99.90;;;;;;6155085;23;20145;-75
2022/07/28 07:02:01;;;;;;;6.93;5.25;;;20.70;99.90;;;;;;6154832;23;20185;-75
2022/07/28 07:04:27;;;;;;;8.52;5.75;;;20.80;99.90;;;;;;6153300;23;20584;-73
2022/07/28 07:06:53;;;;;;;11.00;6.07;;;20.90;99.90;;;;;;6155094;23;20150;-73
2022/07/28 07:09:18;;;;;;;12.10;6.25;;;21.00;99.90;;;;;;6154578;23;20601;-72
2022/07/28 07:11:44;;;;;;;7.50;6.18;;;21.00;99.90;;;;;;6155383;23;20232;-73
2022/07/28 07:14:10;;;;;;;12.73;6.03;;;21.20;99.90;;;;;;6154137;23;20181;-73
2022/07/28 07:16:35;;;;;;;9.55;6.15;;;21.30;99.90;;;;;;6154515;23;20538;-72
2022/07/28 07:19:01;;;;;;;6.55;5.25;;;21.40;99.90;;;;;;6154662;23;20473;-72
2022/07/28 07:21:26;;;;;;;8.15;5.13;;;21.50;99.90;;;;;;6155064;23;20183;-77
2022/07/28 07:23:52;;;;;;;8.30;5.80;;;21.60;99.90;;;;;;6154394;23;20626;-72
2022/07/28 07:26:18;;;;;;;6.18;5.50;;;21.80;99.90;;;;;;6154972;23;20152;-71
2022/07/28 07:28:43;;;;;;;6.45;5.53;;;22.00;99.90;;;;;;6154147;23;20470;-71
2022/07/28 07:31:09;;;;;;;6.72;5.45;;;22.10;99.90;;;;;;6153607;23;20219;-75
2022/07/28 07:33:34;;;;;;;6.80;4.88;;;22.20;99.90;;;;;;6128063;23;20181;-75
2022/07/28 07:36:00;;;;;;;5.75;5.15;;;22.30;99.90;;;;;;6154294;23;20141;-73
2022/07/28 07:38:26;;;;;;;5.68;5.13;;;22.40;99.90;;;;;;6152001;23;20235;-77
2022/07/28 07:40:51;;;;;;;7.13;5.25;;;22.50;99.90;;;;;;6154033;23;20614;-77
2022/07/28 07:43:17;;;;;;;6.32;4.55;;;22.30;99.80;;;;;;6152568;23;20165;-74
2022/07/28 07:45:44;;;;;;;7.28;5.03;;;22.30;99.70;;;;;;6153137;23;20145;-75
2022/07/28 07:48:09;;;;;;;6.97;4.82;;;22.40;99.90;;;;;;6127369;23;20236;-73
2022/07/28 07:50:36;;;;;;;5.95;4.90;;;22.50;98.90;;;;;;6154101;23;20181;-73
2022/07/28 07:53:02;;;;;;;6.82;4.03;;;22.60;99.40;;;;;;6154447;23;20181;-73
2022/07/28 07:55:27;;;;;;;5.32;4.15;;;22.70;98.70;;;;;;6153869;23;20496;-73
2022/07/28 07:57:53;;;;;;;4.47;4.03;;;22.80;97.40;;;;;;6153820;23;20165;-73
2022/07/28 08:00:19;;;;;;;5.80;4.22;;;22.80;97.40;;;;;;6153992;23;20506;-73
2022/07/28 08:02:44;;;;;;;5.03;4.35;;;22.90;97.40;;;;;;6153438;23;20677;-73
2022/07/28 08:05:10;;;;;;;4.50;4.10;;;23.00;97.50;;;;;;6154145;23;20149;-73
2022/07/28 08:07:35;;;;;;;5.63;4.10;;;23.10;97.30;;;;;;6127542;23;20153;-73
2022/07/28 08:10:03;;;;;;;4.43;4.03;;;23.20;96.50;;;;;;6153835;23;20179;-76
2022/07/28 08:12:29;;;;;;;5.97;4.38;;;23.30;96.30;;;;;;6153319;23;20169;-74
2022/07/28 08:14:54;;;;;;;4.55;4.10;;;23.40;95.20;;;;;;6154076;23;20184;-73
2022/07/28 08:17:21;;;;;;;4.45;4.05;;;23.60;95.40;;;;;;6153825;23;20188;-72
2022/07/28 08:19:47;;;;;;;5.75;4.05;;;23.70;94.80;;;;;;6153781;23;20532;-73
2022/07/28 08:22:12;;;;;;;5.68;4.13;;;23.80;94.50;;;;;;6153668;23;20176;-73
2022/07/28 08:24:38;;;;;;;4.38;3.83;;;23.80;94.10;;;;;;6153983;23;20224;-75
2022/07/28 08:27:04;;;;;;;4.20;3.80;;;23.90;94.40;;;;;;6153989;23;20185;-73
2022/07/28 08:29:30;;;;;;;4.38;3.97;;;24.00;94.50;;;;;;6154354;23;20172;-75
2022/07/28 08:31:56;;;;;;;4.50;4.07;;;24.00;94.20;;;;;;6153536;23;20154;-72
2022/07/28 08:34:21;;;;;;;4.25;3.72;;;24.10;93.00;;;;;;6153726;23;20149;-72
2022/07/28 08:36:47;;;;;;;3.70;3.35;;;24.20;93.10;;;;;;6127824;23;20161;-72
2022/07/28 08:39:13;;;;;;;5.32;3.30;;;24.30;93.10;;;;;;6153665;23;20651;-73
2022/07/28 08:42:13;;;;;;;3.88;3.50;;;24.40;91.90;;;;;;6153462;23;20633;-73
2022/07/28 08:44:39;;;;;;;5.50;3.30;;;24.60;91.80;;;;;;6153318;23;20161;-74
2022/07/28 08:47:09;;;;;;;4.65;3.33;;;24.70;91.20;;;;;;6152462;23;20203;-74
2022/07/28 08:49:38;;;;;;;3.78;3.30;;;24.70;91.60;;;;;;6153132;23;20176;-76
2022/07/28 08:52:04;;;;;;;3.38;3.10;;;24.80;90.10;;;;;;6153924;23;20244;-73
2022/07/28 08:54:31;;;;;;;3.55;3.25;;;24.70;90.30;;;;;;6153512;23;20859;-73
2022/07/28 08:56:57;;;;;;;5.18;3.92;;;24.70;90.10;;;;;;6153748;23;20141;-78
2022/07/28 08:59:24;;;;;;;3.28;3.00;;;24.70;90.60;;;;;;6153460;23;20165;-73
2022/07/28 09:01:51;;;;;;;4.65;3.60;;;24.80;90.50;;;;;;6153422;23;20197;-71
2022/07/28 09:04:18;;;;;;;5.25;3.47;;;25.00;90.20;;;;;;6154010;23;20232;-71
2022/07/28 09:06:44;;;;;;;3.35;3.05;;;25.10;90.10;;;;;;6153886;23;20574;-71
2022/07/28 09:09:10;;;;;;;4.63;3.40;;;25.20;89.00;;;;;;6153713;23;20200;-71
2022/07/28 09:11:38;;;;;;;3.67;3.10;;;25.30;89.00;;;;;;6153600;23;20160;-72
2022/07/28 09:14:05;;;;;;;3.60;3.40;;;25.40;88.00;;;;;;6149231;23;20180;-71
2022/07/28 09:16:31;;;;;;;3.60;3.30;;;25.40;87.20;;;;;;6153164;23;20499;-71
2022/07/28 09:18:57;;;;;;;4.22;3.22;;;25.50;87.70;;;;;;6153475;23;20224;-71
2022/07/28 09:21:23;;;;;;;3.50;3.20;;;25.70;88.10;;;;;;6154086;23;20614;-71
2022/07/28 09:23:49;;;;;;;3.63;3.35;;;25.70;85.60;;;;;;6153602;23;20180;-71
2022/07/28 09:26:16;;;;;;;3.38;3.08;;;25.90;85.60;;;;;;6155459;23;20228;-72
2022/07/28 09:28:54;;;;;;;3.40;3.20;;;26.20;84.60;;;;;;6153024;23;20142;-73
2022/07/28 09:31:21;;;;;;;3.47;3.25;;;26.40;84.40;;;;;;6155452;23;20157;-71
2022/07/28 09:34:01;;;;;;;3.30;3.00;;;26.70;82.30;;;;;;6153151;23;20223;-72
2022/07/28 09:36:29;;;;;;;3.42;3.10;;;27.80;80.10;;;;;;6153208;23;20477;-71
2022/07/28 09:38:55;;;;;;;3.50;3.20;;;30.10;73.10;;;;;;6152938;23;20145;-71
2022/07/28 09:41:21;;;;;;;3.20;2.78;;;32.40;65.30;;;;;;6154883;23;20169;-71
2022/07/28 09:43:49;;;;;;;3.85;3.42;;;34.30;58.40;;;;;;6155365;23;20216;-71
2022/07/28 09:46:23;;;;;;;3.75;2.95;;;35.80;53.80;;;;;;6153036;23;20216;-72
2022/07/28 09:48:49;;;;;;;3.55;3.10;;;36.60;51.50;;;;;;6154850;23;20212;-71
2022/07/28 09:51:16;;;;;;;4.18;3.38;;;38.00;49.10;;;;;;6155619;23;20199;-71
2022/07/28 09:53:42;;;;;;;3.92;3.17;;;38.90;45.40;;;;;;6154924;23;20227;-70
2022/07/28 09:56:09;;;;;;;4.53;3.42;;;38.80;45.30;;;;;;6155390;23;20149;-69
2022/07/28 09:58:35;;;;;;;4.60;3.15;;;39.00;44.10;;;;;;6155007;23;20168;-68
2022/07/28 10:01:07;;;;;;;3.50;3.20;;;38.80;44.30;;;;;;6153708;23;20172;-68
2022/07/28 10:03:35;;;;;;;3.75;3.30;;;38.40;45.00;;;;;;6154404;23;20169;-70
2022/07/28 10:06:07;;;;;;;4.10;3.42;;;38.90;44.40;;;;;;6154615;23;20158;-69
2022/07/28 10:08:48;;;;;;;3.03;2.78;;;39.60;43.70;;;;;;6154230;23;20129;-68
2022/07/28 10:11:16;;;;;;;4.82;3.08;;;40.10;42.80;;;;;;6155949;23;20141;-68
2022/07/28 10:13:57;;;;;;;4.28;3.20;;;40.40;42.40;;;;;;6154107;23;20175;-68
2022/07/28 10:16:26;;;;;;;3.58;3.20;;;40.30;42.10;;;;;;6154050;23;20204;-69
2022/07/28 10:18:53;;;;;;;4.13;3.20;;;40.80;41.70;;;;;;6154270;23;20579;-68
2022/07/28 10:21:20;;;;;;;3.05;2.85;;;41.30;40.90;;;;;;6154789;23;20199;-69
2022/07/28 10:23:54;;;;;;;3.50;3.20;;;41.90;40.10;;;;;;6154926;23;20172;-68
2022/07/28 10:26:32;;;;;;;3.78;2.88;;;42.30;39.90;;;;;;6155716;23;20136;-69
2022/07/28 10:29:03;;;;;;;3.20;2.90;;;42.80;38.80;;;;;;6153958;23;20593;-70
2022/07/28 10:31:42;;;;;;;3.85;3.30;;;43.10;38.10;;;;;;6154966;23;20141;-69
2022/07/28 10:34:13;;;;;;;3.22;3.00;;;43.10;37.90;;;;;;6155255;23;20648;-68
2022/07/28 10:36:40;;;;;;;3.92;3.00;;;43.50;37.30;;;;;;6153404;23;20160;-70
2022/07/28 10:39:12;;;;;;;8.93;3.30;;;43.80;37.30;;;;;;6153849;23;20559;-69
2022/07/28 10:41:40;;;;;;;3.00;2.80;;;43.60;37.10;;;;;;6154474;23;20260;-68
2022/07/28 10:44:07;;;;;;;4.22;3.20;;;43.30;37.90;;;;;;6155035;23;20515;-69
2022/07/28 10:46:33;;;;;;;4.47;3.08;;;42.50;38.40;;;;;;6154209;23;20171;-69
2022/07/28 10:49:00;;;;;;;3.53;2.85;;;42.80;37.50;;;;;;6154497;23;20606;-68
2022/07/28 10:51:26;;;;;;;3.28;3.00;;;43.30;36.50;;;;;;6155141;23;20159;-67
2022/07/28 10:54:06;;;;;;;3.03;2.83;;;43.10;37.00;;;;;;6153962;23;20180;-69
2022/07/28 10:56:55;;;;;;;3.13;2.92;;;43.30;36.50;;;;;;6154220;23;20180;-68
2022/07/28 10:59:27;;;;;;;5.13;3.28;;;43.70;36.20;;;;;;6154580;23;20168;-69
2022/07/28 11:01:53;;;;;;;6.30;3.60;;;44.50;35.70;;;;;;6154467;23;20478;-69
2022/07/28 11:04:51;;;;;;;3.42;3.10;;;44.50;35.60;;;;;;6153974;23;20160;-71
2022/07/28 11:07:18;;;;;;;2.90;2.70;;;43.30;36.40;;;;;;6154925;23;20211;-69
2022/07/28 11:09:48;;;;;;;2.67;2.47;;;43.30;36.30;;;;;;6154577;23;20129;-69
2022/07/28 11:12:14;;;;;;;3.20;2.90;;;43.90;35.50;;;;;;6154765;23;20172;-68
2022/07/28 11:14:41;;;;;;;3.38;2.63;;;43.90;35.80;;;;;;6154726;23;20176;-69
2022/07/28 11:17:06;;;;;;;2.60;2.40;;;43.90;35.30;;;;;;6153990;23;20152;-69
2022/07/28 11:19:44;;;;;;;3.10;2.90;;;44.00;34.60;;;;;;6154191;23;20236;-65
2022/07/28 11:22:17;;;;;;;3.00;2.47;;;44.40;34.30;;;;;;6154408;23;20207;-73
2022/07/28 11:25:01;;;;;;;3.03;2.58;;;44.50;33.90;;;;;;6128696;23;20185;-73
2022/07/28 11:27:42;;;;;;;3.10;2.60;;;44.60;34.50;;;;;;6154469;23;20168;-71
2022/07/28 11:30:32;;;;;;;2.10;2.00;;;43.80;35.10;;;;;;6153736;23;20137;-72
2022/07/28 11:33:02;;;;;;;3.03;2.70;;;43.40;34.80;;;;;;6154608;23;20188;-72
2022/07/28 11:35:51;;;;;;;6.20;2.60;;;43.50;35.80;;;;;;6154005;23;20665;-69
2022/07/28 11:38:17;;;;;;;4.15;2.58;;;43.10;34.80;;;;;;6154011;23;20137;-68
2022/07/28 11:40:52;;;;;;;3.33;2.58;;;43.50;35.00;;;;;;6151425;23;20251;-68
2022/07/28 11:43:23;;;;;;;4.55;2.88;;;44.00;35.10;;;;;;6152373;23;20243;-69
2022/07/28 11:46:13;;;;;;;3.13;2.80;;;44.30;35.10;;;;;;6128100;23;20614;-68
2022/07/28 11:48:41;;;;;;;2.40;2.30;;;44.30;34.30;;;;;;6153971;23;20152;-69
2022/07/28 11:51:08;;;;;;;4.80;2.95;;;44.20;33.60;;;;;;6128466;23;20152;-69
2022/07/28 11:53:43;;;;;;;2.70;2.47;;;44.10;34.60;;;;;;6154075;23;20200;-68
2022/07/28 11:56:11;;;;;;;2.65;2.40;;;44.10;34.40;;;;;;6153559;23;20148;-67
2022/07/28 11:58:38;;;;;;;2.42;2.20;;;44.00;34.40;;;;;;6153730;23;20168;-67
2022/07/28 12:01:14;;;;;;;3.22;2.70;;;44.20;33.90;;;;;;6152862;23;20180;-71
2022/07/28 12:03:41;;;;;;;3.70;2.67;;;44.30;33.50;;;;;;6153003;23;20164;-71
2022/07/28 12:06:10;;;;;;;3.78;2.58;;;43.60;34.10;;;;;;6153294;23;20502;-70
2022/07/28 12:09:02;;;;;;;3.05;2.83;;;43.50;33.90;;;;;;6153447;23;20176;-68
2022/07/28 12:11:33;;;;;;;2.47;2.30;;;43.30;34.70;;;;;;6152461;23;20164;-68
2022/07/28 12:14:04;;;;;;;3.13;2.50;;;43.60;33.40;;;;;;6151693;23;20626;-70
2022/07/28 12:16:32;;;;;;;2.70;1.98;;;43.40;33.20;;;;;;6151288;23;20172;-67
2022/07/28 12:18:59;;;;;;;2.67;2.47;;;43.40;33.50;;;;;;6152176;23;20149;-67
2022/07/28 12:21:39;;;;;;;2.63;2.08;;;43.70;32.70;;;;;;6152805;23;20520;-69
2022/07/28 12:24:08;;;;;;;2.15;2.05;;;43.60;32.80;;;;;;6153287;23;20192;-68
2022/07/28 12:26:35;;;;;;;2.10;1.98;;;43.00;33.40;;;;;;6153800;23;20466;-70
2022/07/28 12:29:02;;;;;;;2.25;2.00;;;42.80;33.80;;;;;;6153245;23;20156;-70
2022/07/28 12:31:36;;;;;;;2.35;2.10;;;43.70;33.10;;;;;;6152971;23;20155;-70
2022/07/28 12:34:08;;;;;;;3.97;2.15;;;44.40;31.60;;;;;;6153870;23;20171;-70
2022/07/28 12:36:35;;;;;;;4.78;2.03;;;44.00;32.50;;;;;;6153396;23;20133;-70
2022/07/28 12:39:01;;;;;;;1.95;1.85;;;44.30;32.00;;;;;;6152326;23;20157;-70
2022/07/28 12:41:34;;;;;;;6.22;2.53;;;44.70;31.60;;;;;;6152972;23;20357;-70
2022/07/28 12:44:00;;;;;;;2.80;2.40;;;43.90;32.10;;;;;;6153634;23;20164;-71
2022/07/28 12:46:28;;;;;;;2.97;2.47;;;42.80;33.20;;;;;;6153603;23;20149;-70
2022/07/28 12:48:55;;;;;;;3.00;2.15;;;42.00;34.10;;;;;;6152461;23;20145;-69
2022/07/28 12:51:35;;;;;;;2.88;2.35;;;41.60;34.30;;;;;;6153250;23;20160;-69
2022/07/28 12:54:03;;;;;;;2.17;2.08;;;41.20;34.80;;;;;;6153395;23;20173;-69
2022/07/28 12:56:29;;;;;;;2.10;2.00;;;40.70;35.10;;;;;;6153428;23;20199;-69
2022/07/28 12:59:12;;;;;;;3.80;2.22;;;40.10;34.80;;;;;;6151987;23;20559;-69